Schedule Details


Flight Number: CTN457
Departure: Bruxelles National (EBBR) at 09:45
Arrival: Zagreb / Pleso (LDZA) at 11:55
Route: SPI Q50 ARCKY L607 RUDUS L984 ASKIK Z74 KOSEK L603 AKONI Z74 HAREM T104 DKB P605 AKANU L603 LATLO DCT BERTA DCT ARGOM

Weather Information
EBBR 192120Z 17009KT CAVOK 18/12 Q1007 NOSIG
LDZA 192100Z 22002KT CAVOK 10/07 Q1017 NOSIG
Schedule Frequency

Route Map